Time;durP1;ratioP1;P1;durP2;ratioP2;P2;SDS_P1;SDS_P2;PMS_P1;PMS_P2;Temp;Humidity;BMP_temperature;BMP_pressure;BME280_temperature;BME280_humidity;BME280_pressure;Samples;Min_cycle;Max_cycle;Signal;HPM_P1;HPM_P2
2023/09/14 00:01:54;;;;;;;43.78;5.35;;;16.50;99.90;;;;;;4944894;28;20200;-27
2023/09/14 00:04:21;;;;;;;4.50;4.10;;;16.50;99.90;;;;;;4941810;28;20185;-27
2023/09/14 00:06:48;;;;;;;4.40;4.00;;;16.50;99.90;;;;;;4931987;28;20218;-26
2023/09/14 00:09:14;;;;;;;9.95;4.53;;;16.40;99.90;;;;;;4966379;28;20212;-26
2023/09/14 00:11:40;;;;;;;9.77;4.40;;;16.40;99.90;;;;;;4942325;28;20182;-26
2023/09/14 00:14:06;;;;;;;12.85;4.85;;;16.30;99.90;;;;;;4951641;28;20224;-27
2023/09/14 00:16:31;;;;;;;10.50;5.70;;;16.30;99.90;;;;;;4945899;28;20212;-27
2023/09/14 00:18:57;;;;;;;8.13;5.43;;;16.30;99.90;;;;;;4948813;29;20273;-27
2023/09/14 00:21:23;;;;;;;6.05;5.45;;;16.30;99.90;;;;;;4932142;28;20634;-27
2023/09/14 00:23:49;;;;;;;10.52;5.00;;;16.40;99.90;;;;;;4931127;29;20186;-27
2023/09/14 00:26:15;;;;;;;14.57;5.60;;;16.40;99.90;;;;;;4954825;28;20260;-27
2023/09/14 00:28:46;;;;;;;11.73;5.30;;;16.30;99.90;;;;;;4952282;28;20244;-27
2023/09/14 00:31:11;;;;;;;15.90;5.57;;;16.30;99.90;;;;;;4952768;28;20224;-27
2023/09/14 00:33:37;;;;;;;10.70;5.50;;;16.30;99.90;;;;;;4944189;28;20185;-26
2023/09/14 00:36:04;;;;;;;8.18;5.60;;;16.20;99.90;;;;;;4938089;28;20290;-27
2023/09/14 00:38:29;;;;;;;9.32;5.38;;;16.20;99.90;;;;;;4950481;28;20188;-26
2023/09/14 00:40:55;;;;;;;5.35;4.53;;;16.20;99.90;;;;;;4946663;28;20200;-27
2023/09/14 00:43:21;;;;;;;4.88;4.47;;;16.20;99.90;;;;;;4958121;28;20710;-28
2023/09/14 00:45:47;;;;;;;4.38;3.97;;;16.20;99.90;;;;;;4949926;28;20211;-28
2023/09/14 00:48:14;;;;;;;5.10;4.60;;;16.10;99.90;;;;;;4942126;28;20217;-27
2023/09/14 00:50:40;;;;;;;4.40;4.00;;;16.10;99.90;;;;;;4935549;29;20187;-27
2023/09/14 00:53:11;;;;;;;4.65;4.18;;;16.10;99.90;;;;;;4946388;28;20185;-26
2023/09/14 00:55:37;;;;;;;4.85;4.45;;;16.10;99.90;;;;;;4943094;28;20232;-28
2023/09/14 00:58:03;;;;;;;4.43;4.03;;;16.00;99.90;;;;;;4943215;28;20221;-27
2023/09/14 01:00:29;;;;;;;5.35;4.55;;;16.00;99.90;;;;;;4942005;28;20220;-27
2023/09/14 01:02:56;;;;;;;4.50;3.80;;;16.00;99.90;;;;;;4953161;28;20186;-26
2023/09/14 01:05:24;;;;;;;4.78;4.32;;;15.90;99.90;;;;;;4938235;28;20185;-27
2023/09/14 01:07:50;;;;;;;3.93;3.63;;;15.90;99.90;;;;;;4953355;28;20209;-26
2023/09/14 01:10:16;;;;;;;4.90;3.97;;;15.90;99.90;;;;;;4941066;28;20238;-26
2023/09/14 01:12:51;;;;;;;6.05;4.38;;;15.90;99.90;;;;;;4935853;28;20193;-26
2023/09/14 01:15:33;;;;;;;4.30;3.90;;;16.00;99.90;;;;;;4953506;28;20188;-26
2023/09/14 01:18:12;;;;;;;5.67;4.10;;;15.90;99.90;;;;;;4946457;28;20651;-27
2023/09/14 01:20:57;;;;;;;7.00;5.10;;;16.00;99.90;;;;;;4957966;28;20573;-27
2023/09/14 01:23:47;;;;;;;5.40;4.83;;;15.90;99.90;;;;;;4932949;28;20235;-27
2023/09/14 01:26:15;;;;;;;6.07;4.90;;;15.90;99.90;;;;;;4954745;28;20223;-27
2023/09/14 01:28:40;;;;;;;5.28;4.78;;;15.90;99.90;;;;;;4934141;29;20202;-27
2023/09/14 01:31:06;;;;;;;5.97;5.32;;;15.80;99.90;;;;;;4959845;28;20189;-27
2023/09/14 01:33:32;;;;;;;6.45;5.10;;;15.90;99.90;;;;;;4943533;28;20191;-27
2023/09/14 01:36:20;;;;;;;6.90;4.70;;;15.90;99.90;;;;;;4937217;28;20300;-27
2023/09/14 01:38:47;;;;;;;7.77;5.20;;;15.80;99.90;;;;;;4939387;28;20276;-27
2023/09/14 01:41:14;;;;;;;7.03;4.70;;;15.80;99.90;;;;;;4954102;28;20186;-27
2023/09/14 01:43:45;;;;;;;6.13;4.87;;;15.70;99.90;;;;;;4948264;28;20192;-27
2023/09/14 01:46:11;;;;;;;6.10;5.23;;;15.70;99.90;;;;;;4944560;28;20200;-27
2023/09/14 01:48:37;;;;;;;5.00;4.50;;;15.60;99.90;;;;;;4937610;29;20253;-27
2023/09/14 01:51:03;;;;;;;5.33;4.50;;;15.60;99.90;;;;;;4932294;29;20178;-27
2023/09/14 01:53:29;;;;;;;6.43;5.13;;;15.60;99.90;;;;;;4933995;29;20218;-27
2023/09/14 01:55:55;;;;;;;4.73;4.10;;;15.60;99.90;;;;;;4933441;29;20238;-27
2023/09/14 01:58:22;;;;;;;6.63;4.67;;;15.60;99.90;;;;;;4948072;28;20183;-27
2023/09/14 02:00:48;;;;;;;6.23;5.30;;;15.60;99.90;;;;;;4947081;28;20194;-27
2023/09/14 02:03:14;;;;;;;7.53;5.20;;;15.60;99.90;;;;;;4963236;28;20186;-27
2023/09/14 02:05:40;;;;;;;8.23;5.17;;;15.60;99.90;;;;;;4936699;28;20289;-27
2023/09/14 02:08:06;;;;;;;7.43;5.20;;;15.60;99.90;;;;;;4952675;28;20275;-27
2023/09/14 02:10:32;;;;;;;5.50;4.53;;;15.50;99.90;;;;;;4949626;28;20276;-27
2023/09/14 02:12:58;;;;;;;6.77;5.10;;;15.40;99.90;;;;;;4936151;28;20276;-26
2023/09/14 02:15:24;;;;;;;5.33;4.17;;;15.30;99.90;;;;;;4959697;28;20252;-27
2023/09/14 02:17:51;;;;;;;7.53;5.60;;;15.30;99.90;;;;;;4942202;28;20204;-27
2023/09/14 02:20:17;;;;;;;5.37;4.87;;;15.30;99.90;;;;;;4953846;28;20193;-27
2023/09/14 02:22:43;;;;;;;7.93;5.43;;;15.30;99.90;;;;;;4941213;29;20186;-27
2023/09/14 02:25:08;;;;;;;8.77;5.33;;;15.30;99.90;;;;;;4951556;28;20215;-28
2023/09/14 02:30:28;;;;;;;5.87;5.27;;;15.40;99.90;;;;;;4885323;23;20377;-89
2023/09/14 02:32:54;;;;;;;6.77;5.57;;;15.40;99.90;;;;;;5587422;23;20227;-33
2023/09/14 02:35:20;;;;;;;6.10;5.23;;;15.40;99.90;;;;;;4956418;28;20189;-36
2023/09/14 02:37:46;;;;;;;7.80;6.27;;;15.50;99.90;;;;;;4944234;28;20231;-30
2023/09/14 02:40:12;;;;;;;9.87;6.70;;;15.50;99.90;;;;;;4980393;28;20187;-33
2023/09/14 02:42:39;;;;;;;6.87;6.13;;;15.60;99.90;;;;;;4980486;28;20215;-30
2023/09/14 02:45:05;;;;;;;9.03;6.40;;;15.60;99.90;;;;;;4999260;28;20188;-30
2023/09/14 02:47:31;;;;;;;9.97;6.37;;;15.70;99.90;;;;;;5008894;23;20184;-41
2023/09/14 02:49:59;;;;;;;10.80;8.57;;;15.80;99.90;;;;;;4965371;28;20258;-42
2023/09/14 02:52:24;;;;;;;9.40;7.63;;;15.80;99.90;;;;;;4961853;28;20243;-41
2023/09/14 02:54:50;;;;;;;8.70;7.33;;;15.80;99.90;;;;;;4954790;28;20177;-38
2023/09/14 02:57:16;;;;;;;8.20;7.40;;;15.90;99.90;;;;;;4945835;28;20181;-40
2023/09/14 02:59:42;;;;;;;8.67;7.87;;;15.90;99.90;;;;;;4938901;28;20234;-41
2023/09/14 03:02:08;;;;;;;9.70;8.53;;;15.90;99.90;;;;;;4922078;29;20182;-42
2023/09/14 03:04:36;;;;;;;10.80;9.20;;;15.90;99.90;;;;;;4904829;29;20214;-42
2023/09/14 03:07:02;;;;;;;10.20;7.20;;;15.90;99.90;;;;;;4921375;29;20204;-41
2023/09/14 03:09:28;;;;;;;8.63;7.83;;;16.00;99.90;;;;;;4940653;28;20221;-40
2023/09/14 03:11:55;;;;;;;12.13;8.03;;;16.00;99.90;;;;;;4931403;29;20192;-39
2023/09/14 03:14:21;;;;;;;9.60;7.43;;;16.10;99.90;;;;;;4934938;28;20246;-40
2023/09/14 03:16:49;;;;;;;12.30;7.90;;;16.10;99.90;;;;;;4945983;28;20286;-41
2023/09/14 03:19:15;;;;;;;8.83;8.03;;;16.20;99.90;;;;;;4941985;28;20213;-41
2023/09/14 03:21:41;;;;;;;9.55;7.10;;;16.20;99.90;;;;;;4946750;29;20181;-41
2023/09/14 03:24:07;;;;;;;6.97;6.05;;;16.20;99.90;;;;;;4924478;29;20189;-40
2023/09/14 03:26:33;;;;;;;6.80;6.10;;;16.20;99.90;;;;;;4920777;29;20189;-41
2023/09/14 03:28:59;;;;;;;7.10;6.40;;;16.10;99.90;;;;;;4943909;28;20215;-40
2023/09/14 03:31:25;;;;;;;7.23;6.60;;;16.10;99.90;;;;;;4949402;28;20232;-41
2023/09/14 03:33:54;;;;;;;7.32;6.20;;;16.00;99.90;;;;;;4913241;29;20178;-39
2023/09/14 03:36:20;;;;;;;7.87;6.70;;;16.00;99.90;;;;;;4946884;28;20189;-40
2023/09/14 03:38:46;;;;;;;9.53;7.30;;;16.00;99.90;;;;;;4931327;29;20217;-41
2023/09/14 03:41:13;;;;;;;7.93;6.40;;;15.90;99.90;;;;;;4914729;29;20214;-41
2023/09/14 03:43:40;;;;;;;7.37;6.67;;;15.90;99.90;;;;;;4939288;28;20182;-41
2023/09/14 03:46:06;;;;;;;8.13;7.13;;;15.90;99.90;;;;;;4939961;29;20213;-39
2023/09/14 03:48:32;;;;;;;7.93;7.13;;;16.00;99.90;;;;;;4943887;28;20251;-41
2023/09/14 03:50:59;;;;;;;8.43;6.40;;;16.00;99.90;;;;;;4942946;28;20191;-41
2023/09/14 03:53:25;;;;;;;8.27;7.47;;;16.00;99.90;;;;;;4948865;29;20193;-41
2023/09/14 03:55:55;;;;;;;11.00;7.70;;;16.00;99.90;;;;;;4920639;29;20205;-41
2023/09/14 03:58:22;;;;;;;8.50;7.57;;;16.10;99.90;;;;;;4923110;29;20262;-38
2023/09/14 04:00:48;;;;;;;11.20;9.13;;;16.10;99.90;;;;;;4949409;29;20196;-41
2023/09/14 04:03:16;;;;;;;11.27;8.50;;;16.10;99.90;;;;;;4946484;29;20186;-40
2023/09/14 04:05:42;;;;;;;9.85;8.85;;;16.20;99.90;;;;;;4936217;29;20194;-40
2023/09/14 04:08:08;;;;;;;11.55;9.27;;;16.20;99.90;;;;;;4935918;29;20260;-39
2023/09/14 04:10:37;;;;;;;10.70;9.55;;;16.20;99.90;;;;;;4933767;29;20248;-40
2023/09/14 04:13:28;;;;;;;10.23;9.18;;;16.30;99.90;;;;;;4945038;29;20260;-41
2023/09/14 04:15:57;;;;;;;10.10;9.03;;;16.30;99.90;;;;;;4944204;29;20178;-41
2023/09/14 04:18:23;;;;;;;10.40;9.30;;;16.30;99.90;;;;;;4947227;29;20205;-39
2023/09/14 04:20:50;;;;;;;11.90;9.77;;;16.30;99.90;;;;;;4970718;28;20189;-41
2023/09/14 04:23:16;;;;;;;12.82;9.80;;;16.30;99.90;;;;;;4946379;29;20217;-42
2023/09/14 04:25:44;;;;;;;11.20;9.50;;;16.40;99.90;;;;;;4954987;28;20276;-41
2023/09/14 04:28:16;;;;;;;12.93;10.80;;;16.40;99.90;;;;;;4939962;29;20729;-41
2023/09/14 04:30:43;;;;;;;13.63;9.97;;;16.40;99.90;;;;;;4927299;29;20182;-40
2023/09/14 04:33:11;;;;;;;10.32;8.98;;;16.40;99.90;;;;;;4939945;29;20189;-41
2023/09/14 04:35:37;;;;;;;12.82;10.00;;;16.40;99.90;;;;;;4919964;29;20186;-40
2023/09/14 04:38:03;;;;;;;11.67;10.47;;;16.30;99.90;;;;;;4942110;28;20212;-41
2023/09/14 04:40:29;;;;;;;10.50;9.40;;;16.30;99.90;;;;;;4937801;29;20224;-39
2023/09/14 04:42:54;;;;;;;11.27;10.07;;;16.30;99.90;;;;;;4940909;29;20248;-41
2023/09/14 04:45:20;;;;;;;12.40;10.68;;;16.30;99.90;;;;;;4919575;29;20186;-40
2023/09/14 04:47:46;;;;;;;12.88;11.48;;;16.30;99.90;;;;;;4926900;29;20272;-40
2023/09/14 04:50:12;;;;;;;13.40;10.50;;;16.30;99.90;;;;;;4916297;29;20189;-41
2023/09/14 04:52:38;;;;;;;11.55;10.45;;;16.30;99.90;;;;;;4926660;29;20201;-39
2023/09/14 04:55:06;;;;;;;13.55;11.30;;;16.30;99.90;;;;;;4923720;29;20198;-40
2023/09/14 04:57:33;;;;;;;13.35;11.40;;;16.30;99.90;;;;;;4926154;29;20193;-38
2023/09/14 04:59:59;;;;;;;13.63;10.87;;;16.40;99.90;;;;;;4924540;29;20183;-40
2023/09/14 05:02:24;;;;;;;14.73;11.90;;;16.40;99.90;;;;;;4932844;29;20189;-40
2023/09/14 05:04:51;;;;;;;14.38;11.98;;;16.40;99.90;;;;;;4913531;29;20178;-40
2023/09/14 05:07:17;;;;;;;15.85;11.73;;;16.40;99.90;;;;;;4918765;29;20182;-40
2023/09/14 05:09:43;;;;;;;14.65;11.38;;;16.40;99.90;;;;;;4930301;29;20232;-41
2023/09/14 05:12:09;;;;;;;12.90;11.10;;;16.50;99.90;;;;;;4919711;29;20178;-41
2023/09/14 05:14:35;;;;;;;12.50;11.07;;;16.50;99.90;;;;;;4934873;29;20193;-40
2023/09/14 05:17:01;;;;;;;13.15;11.60;;;16.50;99.90;;;;;;4925594;29;20188;-40
2023/09/14 05:19:27;;;;;;;12.70;10.00;;;16.50;99.90;;;;;;4920975;29;20206;-41
2023/09/14 05:21:53;;;;;;;15.90;10.80;;;16.60;99.90;;;;;;4937966;29;20213;-39
2023/09/14 05:24:19;;;;;;;12.43;9.85;;;16.60;99.90;;;;;;4938061;29;20184;-41
2023/09/14 05:26:47;;;;;;;12.70;9.80;;;16.50;99.90;;;;;;4945951;28;20189;-41
2023/09/14 05:29:13;;;;;;;11.70;9.85;;;16.50;99.90;;;;;;4938376;29;20218;-41
2023/09/14 05:31:39;;;;;;;12.02;10.77;;;16.50;99.90;;;;;;4921942;29;20193;-40
2023/09/14 05:34:06;;;;;;;12.38;11.02;;;16.50;99.90;;;;;;4942444;29;20210;-39
2023/09/14 05:36:32;;;;;;;11.82;10.52;;;16.50;99.90;;;;;;4920017;29;20179;-39
2023/09/14 05:38:58;;;;;;;11.73;10.38;;;16.50;99.90;;;;;;4929234;29;20284;-41
2023/09/14 05:41:24;;;;;;;12.25;11.00;;;16.50;99.90;;;;;;4920181;29;20191;-41
2023/09/14 05:43:50;;;;;;;11.35;10.25;;;16.50;99.90;;;;;;4929950;29;20206;-41
2023/09/14 05:46:17;;;;;;;11.05;9.95;;;16.50;99.90;;;;;;4939193;28;20181;-39
2023/09/14 05:48:48;;;;;;;12.52;11.32;;;16.50;99.90;;;;;;4923017;29;20293;-41
2023/09/14 05:51:15;;;;;;;12.15;10.32;;;16.60;99.90;;;;;;4917221;29;20189;-41
2023/09/14 05:53:41;;;;;;;13.73;11.05;;;16.60;99.90;;;;;;4922994;29;20183;-41
2023/09/14 05:56:07;;;;;;;13.73;11.88;;;16.60;99.90;;;;;;4944796;28;20181;-40
2023/09/14 05:58:33;;;;;;;13.77;11.40;;;16.60;99.90;;;;;;4926178;29;20230;-41
2023/09/14 06:01:00;;;;;;;12.40;10.65;;;16.60;99.90;;;;;;4924365;29;20209;-41
2023/09/14 06:03:26;;;;;;;12.82;11.35;;;16.60;99.90;;;;;;4923245;29;20178;-40
2023/09/14 06:05:52;;;;;;;13.15;11.75;;;16.60;99.90;;;;;;4934268;29;20182;-41
2023/09/14 06:08:18;;;;;;;14.77;12.82;;;16.70;99.90;;;;;;4942157;29;20214;-41
2023/09/14 06:10:43;;;;;;;16.10;13.70;;;16.70;99.90;;;;;;4937382;29;20264;-42
2023/09/14 06:13:10;;;;;;;14.02;12.18;;;16.80;99.90;;;;;;4927204;29;20175;-41
2023/09/14 06:15:36;;;;;;;13.85;12.35;;;16.80;99.90;;;;;;4935265;29;20190;-41
2023/09/14 06:18:01;;;;;;;14.43;11.68;;;16.80;99.90;;;;;;4939454;29;20212;-38
2023/09/14 06:20:27;;;;;;;13.40;11.85;;;16.80;99.90;;;;;;4924367;29;20186;-41
2023/09/14 06:22:53;;;;;;;13.50;12.05;;;16.80;99.90;;;;;;4937271;29;20181;-41
2023/09/14 06:25:20;;;;;;;11.45;10.25;;;16.80;99.90;;;;;;4925937;29;20194;-38
2023/09/14 06:27:45;;;;;;;14.75;12.85;;;16.80;99.90;;;;;;4922167;29;20207;-41
2023/09/14 06:30:11;;;;;;;13.30;11.90;;;16.80;99.90;;;;;;4944772;29;20288;-41
2023/09/14 06:32:37;;;;;;;15.80;11.45;;;16.80;99.90;;;;;;4917872;29;20187;-40
2023/09/14 06:35:04;;;;;;;14.98;12.45;;;16.90;99.90;;;;;;4906569;29;20190;-41
2023/09/14 06:37:30;;;;;;;12.27;10.70;;;16.90;99.90;;;;;;4924974;28;20182;-41
2023/09/14 06:39:56;;;;;;;11.32;10.10;;;17.00;99.90;;;;;;4920029;29;20206;-38
2023/09/14 06:42:22;;;;;;;12.55;10.00;;;17.00;99.90;;;;;;4937635;29;20269;-41
2023/09/14 06:44:48;;;;;;;12.52;10.48;;;17.00;99.90;;;;;;4914571;29;20277;-41
2023/09/14 06:47:13;;;;;;;13.23;11.65;;;17.10;99.90;;;;;;4936041;29;20184;-41
2023/09/14 06:49:39;;;;;;;12.95;11.55;;;17.10;99.90;;;;;;4922566;29;20222;-41
2023/09/14 06:52:05;;;;;;;12.38;11.05;;;17.10;99.90;;;;;;4922174;29;20240;-41
2023/09/14 06:54:31;;;;;;;13.40;12.00;;;17.10;99.90;;;;;;4926769;29;20230;-41
2023/09/14 06:56:57;;;;;;;13.10;11.15;;;17.10;99.90;;;;;;4928702;29;20182;-40
2023/09/14 06:59:23;;;;;;;13.75;12.02;;;17.20;99.90;;;;;;4936065;29;20296;-41
2023/09/14 07:01:50;;;;;;;14.73;12.13;;;17.20;99.90;;;;;;4913239;29;20272;-41
2023/09/14 07:04:15;;;;;;;14.38;11.82;;;17.20;99.90;;;;;;4918250;29;20201;-41
2023/09/14 07:06:42;;;;;;;13.13;11.27;;;17.20;99.90;;;;;;4931715;29;20276;-41
2023/09/14 07:09:07;;;;;;;14.02;11.88;;;17.30;99.90;;;;;;4922625;29;20213;-41
2023/09/14 07:11:34;;;;;;;14.05;12.57;;;17.30;99.90;;;;;;4934558;29;20186;-41
2023/09/14 07:14:00;;;;;;;12.38;10.73;;;17.20;99.90;;;;;;4916883;29;20189;-41
2023/09/14 07:16:26;;;;;;;15.02;13.07;;;17.30;99.90;;;;;;4924921;29;20221;-41
2023/09/14 07:18:52;;;;;;;14.55;12.75;;;17.30;99.90;;;;;;4921140;29;20206;-38
2023/09/14 07:21:18;;;;;;;14.65;12.07;;;17.30;99.90;;;;;;4910116;29;20190;-38
2023/09/14 07:23:44;;;;;;;15.73;13.00;;;17.30;99.90;;;;;;4926259;29;20193;-42
2023/09/14 07:26:10;;;;;;;14.82;13.00;;;17.40;99.90;;;;;;4945964;29;20196;-40
2023/09/14 07:28:37;;;;;;;15.57;13.52;;;17.40;99.90;;;;;;4933870;29;20209;-39
2023/09/14 07:31:05;;;;;;;15.63;13.00;;;17.40;99.90;;;;;;4927260;29;20187;-38
2023/09/14 07:33:32;;;;;;;13.38;11.63;;;17.40;99.90;;;;;;4937645;29;20187;-33
2023/09/14 07:35:58;;;;;;;14.13;12.32;;;17.40;99.90;;;;;;4913887;29;20291;-37
2023/09/14 07:38:23;;;;;;;15.23;12.85;;;17.40;99.90;;;;;;4921560;29;20304;-38
2023/09/14 07:40:49;;;;;;;12.35;10.30;;;17.40;99.90;;;;;;4935927;29;20189;-36
2023/09/14 07:43:15;;;;;;;18.52;14.38;;;17.40;99.90;;;;;;4927763;29;20185;-37
2023/09/14 07:45:43;;;;;;;14.63;13.07;;;17.40;99.90;;;;;;4924646;29;20202;-38
2023/09/14 07:48:09;;;;;;;14.43;12.50;;;17.40;99.90;;;;;;4913334;29;20305;-37
2023/09/14 07:50:39;;;;;;;13.80;12.40;;;17.50;99.90;;;;;;4943312;28;20245;-39
2023/09/14 07:53:07;;;;;;;16.90;13.20;;;17.50;99.90;;;;;;4916755;29;20189;-37
2023/09/14 07:55:33;;;;;;;13.70;11.25;;;17.50;99.90;;;;;;4917723;29;20186;-36
2023/09/14 07:57:59;;;;;;;13.77;12.13;;;17.50;99.90;;;;;;4919983;29;20298;-35
2023/09/14 08:00:25;;;;;;;14.00;12.25;;;17.60;99.90;;;;;;4952801;28;20255;-39
2023/09/14 08:02:51;;;;;;;12.82;11.23;;;17.60;99.90;;;;;;4930252;29;20186;-37
2023/09/14 08:05:17;;;;;;;15.70;12.10;;;17.70;99.90;;;;;;4916511;29;20186;-36
2023/09/14 08:07:43;;;;;;;12.35;11.13;;;17.70;99.90;;;;;;4940122;28;20212;-39
2023/09/14 08:10:09;;;;;;;12.80;10.85;;;17.70;99.90;;;;;;4929537;29;20177;-39
2023/09/14 08:12:38;;;;;;;14.82;11.75;;;17.80;99.90;;;;;;4925775;29;20212;-37
2023/09/14 08:15:05;;;;;;;13.73;11.23;;;17.80;99.90;;;;;;4940179;29;20302;-36
2023/09/14 08:17:30;;;;;;;15.73;11.68;;;17.80;99.90;;;;;;4924173;28;20216;-35
2023/09/14 08:19:56;;;;;;;11.50;10.35;;;17.90;99.90;;;;;;4920157;29;20262;-36
2023/09/14 08:22:23;;;;;;;14.48;12.20;;;17.90;99.90;;;;;;4925165;29;20238;-35
2023/09/14 08:24:52;;;;;;;13.10;11.18;;;17.90;99.90;;;;;;4943332;29;20177;-37
2023/09/14 08:27:18;;;;;;;14.40;12.90;;;18.00;99.90;;;;;;4927548;29;20181;-34
2023/09/14 08:29:45;;;;;;;15.00;11.95;;;18.00;99.90;;;;;;4933290;29;20213;-36
2023/09/14 08:32:14;;;;;;;16.38;13.13;;;18.10;99.90;;;;;;4929944;29;20181;-37
2023/09/14 08:34:40;;;;;;;12.98;11.40;;;18.10;99.90;;;;;;4918113;29;20190;-37
2023/09/14 08:37:10;;;;;;;13.77;10.35;;;18.10;99.90;;;;;;4931333;29;20185;-36
2023/09/14 08:39:37;;;;;;;12.38;10.45;;;18.20;99.90;;;;;;4916314;29;20206;-39
2023/09/14 08:42:04;;;;;;;13.02;11.57;;;18.20;99.90;;;;;;4916002;29;20272;-38
2023/09/14 08:44:33;;;;;;;13.32;11.38;;;18.20;99.90;;;;;;4926284;29;20186;-36
2023/09/14 08:47:01;;;;;;;13.70;11.45;;;18.30;99.90;;;;;;4923910;29;20187;-35
2023/09/14 08:49:28;;;;;;;15.07;12.55;;;18.40;99.90;;;;;;4963405;23;20252;-31
2023/09/14 08:51:57;;;;;;;13.25;10.75;;;18.40;99.90;;;;;;4939657;28;20192;-31
2023/09/14 08:54:23;;;;;;;12.90;10.70;;;18.40;99.90;;;;;;4947614;29;20197;-31
2023/09/14 08:56:51;;;;;;;13.57;12.18;;;18.50;99.90;;;;;;4953488;29;20213;-31
2023/09/14 08:59:20;;;;;;;13.88;12.32;;;18.60;99.90;;;;;;4948593;29;20221;-31
2023/09/14 09:01:48;;;;;;;12.52;11.23;;;18.70;99.90;;;;;;4919484;29;20277;-31
2023/09/14 09:04:14;;;;;;;12.70;10.43;;;18.80;99.90;;;;;;4935185;29;20190;-31
2023/09/14 09:06:44;;;;;;;13.23;11.23;;;18.90;99.90;;;;;;4919151;29;20190;-31
2023/09/14 09:09:12;;;;;;;10.55;9.48;;;19.10;99.90;;;;;;4911622;29;20325;-31
2023/09/14 09:11:38;;;;;;;11.82;10.55;;;19.40;99.90;;;;;;4918722;29;20277;-31
2023/09/14 09:14:04;;;;;;;11.65;9.20;;;19.60;99.90;;;;;;4928184;29;20261;-31
2023/09/14 09:16:31;;;;;;;11.23;9.13;;;19.70;99.90;;;;;;4916082;29;20255;-31
2023/09/14 09:19:05;;;;;;;10.60;8.85;;;19.80;99.90;;;;;;4919258;29;20213;-31
2023/09/14 09:21:34;;;;;;;8.05;7.22;;;20.00;99.90;;;;;;4916165;29;20277;-31
2023/09/14 09:24:04;;;;;;;9.38;8.32;;;20.00;99.90;;;;;;4903995;29;20186;-31
2023/09/14 09:26:36;;;;;;;12.05;9.55;;;20.10;99.90;;;;;;4916016;29;20199;-31
2023/09/14 09:29:25;;;;;;;10.10;9.05;;;20.00;99.90;;;;;;4922960;29;20313;-31
2023/09/14 09:31:51;;;;;;;8.15;7.35;;;20.00;99.90;;;;;;4930582;29;20222;-31
2023/09/14 09:34:22;;;;;;;10.27;7.97;;;19.90;99.90;;;;;;4931651;29;20181;-31
2023/09/14 09:36:54;;;;;;;9.27;8.32;;;20.00;99.90;;;;;;4924913;29;20193;-31
2023/09/14 09:39:20;;;;;;;8.63;7.32;;;19.90;99.90;;;;;;4910713;29;20211;-31
2023/09/14 09:41:46;;;;;;;8.32;7.40;;;20.00;99.90;;;;;;4940432;29;20195;-31
2023/09/14 09:44:15;;;;;;;9.52;6.53;;;20.00;99.90;;;;;;4926521;29;20650;-31
2023/09/14 09:46:42;;;;;;;7.10;6.32;;;20.00;99.90;;;;;;4934458;29;20189;-31
2023/09/14 09:49:22;;;;;;;6.20;5.60;;;20.10;99.90;;;;;;4934020;29;20221;-30
2023/09/14 09:51:50;;;;;;;7.95;6.15;;;20.30;99.90;;;;;;4918000;29;20242;-30
2023/09/14 09:54:19;;;;;;;6.05;5.45;;;20.40;99.90;;;;;;4934480;29;20178;-30
2023/09/14 09:56:45;;;;;;;7.57;6.82;;;20.50;99.90;;;;;;4949419;28;20182;-30
2023/09/14 09:59:15;;;;;;;7.45;6.05;;;20.40;99.90;;;;;;4917838;29;20209;-30
2023/09/14 10:01:45;;;;;;;6.38;5.68;;;20.50;99.90;;;;;;4918364;29;20258;-30
2023/09/14 10:04:19;;;;;;;7.63;6.93;;;20.70;99.90;;;;;;4934312;29;20237;-30
2023/09/14 10:06:50;;;;;;;8.07;7.20;;;20.90;99.90;;;;;;4903853;29;20193;-30
2023/09/14 10:09:16;;;;;;;7.13;6.43;;;21.10;99.90;;;;;;4939635;29;20216;-31
2023/09/14 10:11:43;;;;;;;6.13;5.53;;;21.30;99.90;;;;;;4926271;29;20185;-30
2023/09/14 10:14:14;;;;;;;7.90;6.47;;;21.50;99.90;;;;;;4922596;29;20186;-30
2023/09/14 10:16:42;;;;;;;8.82;7.20;;;21.50;99.90;;;;;;4937101;29;20205;-31
2023/09/14 10:19:09;;;;;;;7.50;6.25;;;21.40;99.90;;;;;;4914047;29;20238;-31
2023/09/14 10:21:36;;;;;;;7.55;5.78;;;21.60;99.90;;;;;;4926865;29;20262;-31
2023/09/14 10:24:06;;;;;;;5.55;4.93;;;21.70;99.90;;;;;;4910483;29;20228;-31
2023/09/14 10:26:38;;;;;;;7.82;7.05;;;21.80;99.90;;;;;;4915246;29;20187;-31
2023/09/14 10:29:08;;;;;;;8.35;7.55;;;21.70;99.90;;;;;;4910205;29;20214;-31
2023/09/14 10:31:35;;;;;;;7.90;6.18;;;21.60;99.90;;;;;;4914909;29;20190;-30
2023/09/14 10:34:05;;;;;;;6.93;6.22;;;21.50;99.90;;;;;;4914118;29;20175;-31
2023/09/14 10:36:32;;;;;;;6.60;5.85;;;21.30;99.90;;;;;;4898937;29;20198;-31
2023/09/14 10:38:59;;;;;;;6.93;6.10;;;21.50;99.90;;;;;;4908577;29;20218;-31
2023/09/14 10:41:25;;;;;;;6.85;6.15;;;21.50;99.90;;;;;;4919804;29;20214;-31
2023/09/14 10:43:52;;;;;;;5.88;5.28;;;21.70;99.90;;;;;;4930045;29;20182;-31
2023/09/14 10:46:31;;;;;;;6.18;5.00;;;21.80;99.90;;;;;;4926923;29;20249;-31
2023/09/14 10:48:58;;;;;;;5.20;4.70;;;22.10;99.90;;;;;;4924294;29;20233;-31
2023/09/14 10:51:26;;;;;;;6.82;5.15;;;22.40;99.90;;;;;;4909946;29;20249;-31
2023/09/14 10:53:52;;;;;;;5.18;4.68;;;22.50;99.90;;;;;;4924653;29;20627;-30
2023/09/14 10:56:34;;;;;;;4.50;4.05;;;22.70;99.90;;;;;;4917409;29;20181;-30
2023/09/14 10:59:08;;;;;;;4.88;4.40;;;22.70;99.90;;;;;;4906525;29;20218;-31
2023/09/14 11:01:46;;;;;;;4.10;3.70;;;22.90;99.90;;;;;;4921645;29;20232;-31
2023/09/14 11:04:14;;;;;;;4.03;3.60;;;23.00;99.90;;;;;;4926164;29;20213;-31
2023/09/14 11:06:55;;;;;;;5.13;3.50;;;23.10;99.90;;;;;;4917182;29;20197;-31
2023/09/14 11:09:23;;;;;;;3.95;3.58;;;23.30;99.90;;;;;;4918462;29;20304;-31
2023/09/14 11:11:53;;;;;;;5.70;3.80;;;23.40;99.90;;;;;;4915685;29;20197;-31
2023/09/14 11:14:29;;;;;;;4.68;3.42;;;23.50;99.90;;;;;;4907233;29;20213;-31
2023/09/14 11:17:01;;;;;;;3.70;3.40;;;23.40;99.90;;;;;;4926808;29;20224;-31
2023/09/14 11:19:40;;;;;;;4.75;3.35;;;23.60;99.90;;;;;;4922086;29;20237;-31
2023/09/14 11:22:14;;;;;;;3.78;3.08;;;23.60;99.90;;;;;;4909821;29;20213;-31
2023/09/14 11:24:41;;;;;;;4.68;3.30;;;23.70;99.90;;;;;;4924664;29;20189;-31
2023/09/14 11:27:17;;;;;;;5.53;3.50;;;23.70;99.90;;;;;;4930519;29;20201;-31
2023/09/14 11:29:44;;;;;;;3.60;3.30;;;23.80;99.90;;;;;;4923175;29;20216;-31
2023/09/14 11:32:17;;;;;;;3.80;3.33;;;23.80;99.90;;;;;;4922709;29;20269;-31
2023/09/14 11:34:44;;;;;;;5.00;3.05;;;24.00;99.90;;;;;;4921663;29;20190;-31
2023/09/14 11:37:12;;;;;;;4.55;2.80;;;24.10;99.90;;;;;;4905809;29;20182;-31
2023/09/14 11:39:40;;;;;;;4.22;3.85;;;24.20;99.90;;;;;;4931623;29;20214;-32
2023/09/14 11:42:06;;;;;;;3.55;3.25;;;24.30;99.90;;;;;;4907612;29;20190;-31
2023/09/14 11:44:44;;;;;;;3.17;2.92;;;24.10;99.90;;;;;;4905724;29;20196;-31
2023/09/14 11:47:10;;;;;;;3.40;2.83;;;24.20;99.90;;;;;;4906051;29;20186;-31
2023/09/14 11:49:40;;;;;;;3.20;2.70;;;24.30;99.90;;;;;;4928395;29;20217;-31
2023/09/14 11:52:10;;;;;;;3.83;3.00;;;24.50;99.90;;;;;;4925143;29;20209;-30
2023/09/14 11:54:37;;;;;;;3.30;3.00;;;24.70;99.90;;;;;;4920556;29;20190;-30
2023/09/14 11:57:04;;;;;;;3.30;3.00;;;24.90;99.90;;;;;;4924695;29;20182;-30
2023/09/14 11:59:32;;;;;;;3.10;2.90;;;25.00;99.90;;;;;;4928459;29;20277;-30
2023/09/14 12:01:59;;;;;;;2.63;2.28;;;25.00;99.90;;;;;;4911391;29;20210;-31
2023/09/14 12:04:27;;;;;;;5.57;2.50;;;25.30;99.90;;;;;;4906563;29;20667;-31
2023/09/14 12:06:55;;;;;;;2.72;2.50;;;25.50;99.90;;;;;;4907333;29;20196;-31
2023/09/14 12:09:35;;;;;;;2.75;2.55;;;25.60;99.90;;;;;;4921360;29;20230;-31
2023/09/14 12:12:01;;;;;;;3.35;3.05;;;25.70;99.90;;;;;;4922076;29;20201;-31
2023/09/14 12:14:38;;;;;;;3.75;2.60;;;25.70;99.90;;;;;;4914536;29;20273;-31
2023/09/14 12:17:26;;;;;;;3.10;2.80;;;25.80;99.90;;;;;;4913056;29;20178;-31
2023/09/14 12:19:56;;;;;;;3.63;2.50;;;25.60;99.90;;;;;;4930526;29;20210;-31
2023/09/14 12:22:26;;;;;;;3.63;2.90;;;25.70;99.90;;;;;;4931282;29;20193;-31
2023/09/14 12:24:53;;;;;;;2.85;2.58;;;25.90;99.90;;;;;;4924196;29;20193;-31
2023/09/14 12:27:19;;;;;;;2.63;2.42;;;26.00;99.90;;;;;;4933998;29;20196;-31
2023/09/14 12:29:46;;;;;;;2.35;2.15;;;26.00;99.90;;;;;;4929209;29;20297;-30
2023/09/14 12:32:16;;;;;;;2.60;2.40;;;25.90;99.90;;;;;;4932024;29;20186;-30
2023/09/14 12:34:45;;;;;;;2.55;2.35;;;25.70;99.90;;;;;;4927718;29;20175;-30
2023/09/14 12:37:15;;;;;;;3.13;2.40;;;26.00;99.90;;;;;;4917620;29;20212;-30
2023/09/14 12:39:44;;;;;;;2.50;2.30;;;26.20;99.90;;;;;;4930612;29;20214;-30
2023/09/14 12:42:10;;;;;;;2.53;2.33;;;26.10;99.90;;;;;;4922621;29;20197;-30
2023/09/14 12:44:37;;;;;;;4.10;2.63;;;26.30;99.90;;;;;;4916640;29;20197;-30